sensor_id;sensor_type;location;lat;lon;timestamp;pressure;altitude;pressure_sealevel;temperature;humidity
29331;BME280;16331;52.528;13.342;2023-03-18T00:01:18;158524.28;;;10.24;82.04
29331;BME280;16331;52.528;13.342;2023-03-18T00:03:46;158518.78;;;10.22;81.90
29331;BME280;16331;52.528;13.342;2023-03-18T00:06:17;158521.53;;;10.23;81.96
29331;BME280;16331;52.528;13.342;2023-03-18T00:08:45;158506.47;;;10.17;82.13
29331;BME280;16331;52.528;13.342;2023-03-18T00:11:13;158502.34;;;10.16;82.21
29331;BME280;16331;52.528;13.342;2023-03-18T00:13:41;158514.69;;;10.20;81.00
29331;BME280;16331;52.528;13.342;2023-03-18T00:16:09;158509.19;;;10.18;81.45
29331;BME280;16331;52.528;13.342;2023-03-18T00:18:39;158510.56;;;10.19;81.46
29331;BME280;16331;52.528;13.342;2023-03-18T00:21:07;158488.63;;;10.11;82.21
29331;BME280;16331;52.528;13.342;2023-03-18T00:23:34;158468.03;;;10.03;82.49
29331;BME280;16331;52.528;13.342;2023-03-18T00:26:01;158463.84;;;10.02;83.03
29331;BME280;16331;52.528;13.342;2023-03-18T00:28:29;158447.41;;;9.96;83.66
29331;BME280;16331;52.528;13.342;2023-03-18T00:31:05;158458.41;;;10.00;84.11
29331;BME280;16331;52.528;13.342;2023-03-18T00:33:37;158433.69;;;9.91;84.49
29331;BME280;16331;52.528;13.342;2023-03-18T00:36:08;158422.75;;;9.87;85.02
29331;BME280;16331;52.528;13.342;2023-03-18T00:38:35;158422.75;;;9.87;85.31
29331;BME280;16331;52.528;13.342;2023-03-18T00:41:01;158417.25;;;9.85;85.43
29331;BME280;16331;52.528;13.342;2023-03-18T00:43:42;158403.53;;;9.80;85.35
29331;BME280;16331;52.528;13.342;2023-03-18T00:48:45;158385.72;;;9.73;86.57
29331;BME280;16331;52.528;13.342;2023-03-18T00:51:13;158392.59;;;9.76;85.49
29331;BME280;16331;52.528;13.342;2023-03-18T00:53:45;158373.41;;;9.69;86.21
29331;BME280;16331;52.528;13.342;2023-03-18T00:56:12;158389.81;;;9.75;86.62
29331;BME280;16331;52.528;13.342;2023-03-18T00:58:40;158380.28;;;9.71;85.83
29331;BME280;16331;52.528;13.342;2023-03-18T01:01:07;158406.31;;;9.81;85.67
29331;BME280;16331;52.528;13.342;2023-03-18T01:03:34;158393.94;;;9.76;84.71
29331;BME280;16331;52.528;13.342;2023-03-18T01:06:01;158381.59;;;9.72;86.35
29331;BME280;16331;52.528;13.342;2023-03-18T01:08:30;158387.09;;;9.74;86.10
29331;BME280;16331;52.528;13.342;2023-03-18T01:10:57;158377.50;;;9.70;85.21
29331;BME280;16331;52.528;13.342;2023-03-18T01:13:23;158340.53;;;9.57;86.12
29331;BME280;16331;52.528;13.342;2023-03-18T01:15:52;158373.41;;;9.69;85.41
29331;BME280;16331;52.528;13.342;2023-03-18T01:18:19;158345.97;;;9.59;85.87
29331;BME280;16331;52.528;13.342;2023-03-18T01:20:47;158321.31;;;9.50;86.86
29331;BME280;16331;52.528;13.342;2023-03-18T01:23:17;158340.53;;;9.57;86.23
29331;BME280;16331;52.528;13.342;2023-03-18T01:25:43;158326.81;;;9.52;85.91
29331;BME280;16331;52.528;13.342;2023-03-18T01:28:12;158335.03;;;9.55;86.13
29331;BME280;16331;52.528;13.342;2023-03-18T01:30:44;158329.53;;;9.53;85.88
29331;BME280;16331;52.528;13.342;2023-03-18T01:33:13;158335.03;;;9.55;85.63
29331;BME280;16331;52.528;13.342;2023-03-18T01:35:40;158341.84;;;9.57;85.29
29331;BME280;16331;52.528;13.342;2023-03-18T01:38:07;158343.25;;;9.58;85.14
29331;BME280;16331;52.528;13.342;2023-03-18T01:40:37;158329.53;;;9.53;84.62
29331;BME280;16331;52.528;13.342;2023-03-18T01:43:20;158326.81;;;9.52;85.15
29331;BME280;16331;52.528;13.342;2023-03-18T01:45:54;158329.53;;;9.53;85.18
29331;BME280;16331;52.528;13.342;2023-03-18T01:48:24;158345.97;;;9.59;84.17
29331;BME280;16331;52.528;13.342;2023-03-18T01:50:58;158372.00;;;9.68;83.34
29331;BME280;16331;52.528;13.342;2023-03-18T01:53:28;158369.28;;;9.67;82.89
29331;BME280;16331;52.528;13.342;2023-03-18T01:55:56;158376.16;;;9.70;82.23
29331;BME280;16331;52.528;13.342;2023-03-18T01:58:31;158337.75;;;9.56;83.61
29331;BME280;16331;52.528;13.342;2023-03-18T02:01:03;158326.81;;;9.52;83.47
29331;BME280;16331;52.528;13.342;2023-03-18T02:03:34;158330.91;;;9.53;83.55
29331;BME280;16331;52.528;13.342;2023-03-18T02:06:03;158332.31;;;9.54;84.23
29331;BME280;16331;52.528;13.342;2023-03-18T02:08:29;158366.56;;;9.66;82.71
29331;BME280;16331;52.528;13.342;2023-03-18T02:10:58;158373.41;;;9.69;82.47
29331;BME280;16331;52.528;13.342;2023-03-18T02:13:25;158372.00;;;9.68;83.04
29331;BME280;16331;52.528;13.342;2023-03-18T02:15:58;158403.53;;;9.80;81.28
29331;BME280;16331;52.528;13.342;2023-03-18T02:18:35;158413.16;;;9.83;81.89
29331;BME280;16331;52.528;13.342;2023-03-18T02:27:00;158347.34;;;9.59;83.47
29331;BME280;16331;52.528;13.342;2023-03-18T02:29:32;158345.97;;;9.59;83.45
29331;BME280;16331;52.528;13.342;2023-03-18T02:32:05;158348.75;;;9.60;82.81
29331;BME280;16331;52.528;13.342;2023-03-18T02:34:32;158356.94;;;9.63;82.82
29331;BME280;16331;52.528;13.342;2023-03-18T02:37:00;158359.69;;;9.64;83.33
29331;BME280;16331;52.528;13.342;2023-03-18T02:39:27;158365.16;;;9.66;82.85
29331;BME280;16331;52.528;13.342;2023-03-18T02:42:00;158381.59;;;9.72;82.48
29331;BME280;16331;52.528;13.342;2023-03-18T02:44:29;158332.31;;;9.54;84.22
29331;BME280;16331;52.528;13.342;2023-03-18T02:46:59;158381.59;;;9.72;82.47
29331;BME280;16331;52.528;13.342;2023-03-18T02:49:30;158356.94;;;9.63;83.15
29331;BME280;16331;52.528;13.342;2023-03-18T02:51:57;158392.59;;;9.76;82.18
29331;BME280;16331;52.528;13.342;2023-03-18T02:54:27;158387.09;;;9.74;82.02
29331;BME280;16331;52.528;13.342;2023-03-18T02:56:57;158392.59;;;9.76;82.32
29331;BME280;16331;52.528;13.342;2023-03-18T02:59:33;158347.34;;;9.59;82.73
29331;BME280;16331;52.528;13.342;2023-03-18T03:02:02;158362.44;;;9.65;82.57
29331;BME280;16331;52.528;13.342;2023-03-18T03:04:29;158337.75;;;9.56;83.49
29331;BME280;16331;52.528;13.342;2023-03-18T03:06:56;158351.47;;;9.61;83.34
29331;BME280;16331;52.528;13.342;2023-03-18T03:09:22;158348.75;;;9.60;83.93
29331;BME280;16331;52.528;13.342;2023-03-18T03:11:49;158354.22;;;9.62;83.48
29331;BME280;16331;52.528;13.342;2023-03-18T03:14:16;158362.44;;;9.65;83.87
29331;BME280;16331;52.528;13.342;2023-03-18T03:16:43;158366.56;;;9.66;82.85
29331;BME280;16331;52.528;13.342;2023-03-18T03:19:10;158313.09;;;9.47;84.73
29331;BME280;16331;52.528;13.342;2023-03-18T03:21:37;158321.31;;;9.50;85.28
29331;BME280;16331;52.528;13.342;2023-03-18T03:24:04;158318.59;;;9.49;85.70
29331;BME280;16331;52.528;13.342;2023-03-18T03:26:31;158359.69;;;9.64;84.23
29331;BME280;16331;52.528;13.342;2023-03-18T03:29:02;158381.59;;;9.72;83.77
29331;BME280;16331;52.528;13.342;2023-03-18T03:31:29;158337.75;;;9.56;84.80
29331;BME280;16331;52.528;13.342;2023-03-18T03:33:56;158363.78;;;9.65;84.79
29331;BME280;16331;52.528;13.342;2023-03-18T03:36:25;158340.53;;;9.57;85.06
29331;BME280;16331;52.528;13.342;2023-03-18T03:38:53;158350.13;;;9.60;84.28
29331;BME280;16331;52.528;13.342;2023-03-18T03:41:20;158335.03;;;9.55;84.80
29331;BME280;16331;52.528;13.342;2023-03-18T03:43:47;158325.41;;;9.51;85.70
29331;BME280;16331;52.528;13.342;2023-03-18T03:46:20;158281.56;;;9.35;86.68
29331;BME280;16331;52.528;13.342;2023-03-18T03:48:47;158259.63;;;9.27;88.09
29331;BME280;16331;52.528;13.342;2023-03-18T03:51:14;158328.19;;;9.52;86.92
29331;BME280;16331;52.528;13.342;2023-03-18T03:53:41;158336.41;;;9.55;86.23
29331;BME280;16331;52.528;13.342;2023-03-18T03:56:11;158332.31;;;9.54;86.59
29331;BME280;16331;52.528;13.342;2023-03-18T03:58:40;158313.09;;;9.47;86.87
29331;BME280;16331;52.528;13.342;2023-03-18T04:01:13;158289.78;;;9.38;88.27
29331;BME280;16331;52.528;13.342;2023-03-18T04:03:48;158317.19;;;9.48;87.09
29331;BME280;16331;52.528;13.342;2023-03-18T04:06:19;158317.19;;;9.48;86.92
29331;BME280;16331;52.528;13.342;2023-03-18T04:08:46;158356.94;;;9.63;85.98
29331;BME280;16331;52.528;13.342;2023-03-18T04:11:12;158340.53;;;9.57;86.16
29331;BME280;16331;52.528;13.342;2023-03-18T04:13:39;158285.66;;;9.37;87.69
29331;BME280;16331;52.528;13.342;2023-03-18T04:16:07;158263.75;;;9.29;89.06
29331;BME280;16331;52.528;13.342;2023-03-18T04:18:34;158274.72;;;9.33;89.26
29331;BME280;16331;52.528;13.342;2023-03-18T04:21:02;158300.78;;;9.42;88.57
29331;BME280;16331;52.528;13.342;2023-03-18T04:23:28;158321.31;;;9.50;87.97
29331;BME280;16331;52.528;13.342;2023-03-18T04:25:55;158295.28;;;9.40;87.95
29331;BME280;16331;52.528;13.342;2023-03-18T04:28:22;158293.88;;;9.40;87.46
29331;BME280;16331;52.528;13.342;2023-03-18T04:30:48;158266.53;;;9.30;88.64
29331;BME280;16331;52.528;13.342;2023-03-18T04:33:16;158259.63;;;9.27;89.27
29331;BME280;16331;52.528;13.342;2023-03-18T04:35:44;158285.66;;;9.37;88.67
29331;BME280;16331;52.528;13.342;2023-03-18T04:38:11;158304.88;;;9.44;87.12
29331;BME280;16331;52.528;13.342;2023-03-18T04:40:38;158241.81;;;9.21;88.82
29331;BME280;16331;52.528;13.342;2023-03-18T04:43:04;158280.19;;;9.35;88.97
29331;BME280;16331;52.528;13.342;2023-03-18T04:45:31;158340.53;;;9.57;85.91
29331;BME280;16331;52.528;13.342;2023-03-18T04:47:57;158317.19;;;9.48;86.26
29331;BME280;16331;52.528;13.342;2023-03-18T04:50:25;158281.56;;;9.35;87.22
29331;BME280;16331;52.528;13.342;2023-03-18T04:52:52;158206.19;;;9.08;90.62
29331;BME280;16331;52.528;13.342;2023-03-18T04:55:19;158248.69;;;9.23;89.89
29331;BME280;16331;52.528;13.342;2023-03-18T04:57:47;158211.69;;;9.10;90.62
29331;BME280;16331;52.528;13.342;2023-03-18T05:00:17;158224.00;;;9.14;90.93
29331;BME280;16331;52.528;13.342;2023-03-18T05:02:47;158291.16;;;9.39;89.91
29331;BME280;16331;52.528;13.342;2023-03-18T05:05:13;158266.53;;;9.30;89.99
29331;BME280;16331;52.528;13.342;2023-03-18T05:07:41;158271.97;;;9.32;88.83
29331;BME280;16331;52.528;13.342;2023-03-18T05:10:09;158276.06;;;9.33;88.97
29331;BME280;16331;52.528;13.342;2023-03-18T05:12:36;158247.31;;;9.23;89.69
29331;BME280;16331;52.528;13.342;2023-03-18T05:15:04;158225.38;;;9.15;90.38
29331;BME280;16331;52.528;13.342;2023-03-18T05:17:30;158199.38;;;9.05;92.63
29331;BME280;16331;52.528;13.342;2023-03-18T05:19:56;158218.56;;;9.12;92.82
29331;BME280;16331;52.528;13.342;2023-03-18T05:22:23;158300.78;;;9.42;88.67
29331;BME280;16331;52.528;13.342;2023-03-18T05:24:51;158247.31;;;9.23;90.17
29331;BME280;16331;52.528;13.342;2023-03-18T05:27:18;158226.78;;;9.15;91.83
29331;BME280;16331;52.528;13.342;2023-03-18T05:29:46;158184.28;;;9.00;92.78
29331;BME280;16331;52.528;13.342;2023-03-18T05:32:15;158202.09;;;9.06;93.24
29331;BME280;16331;52.528;13.342;2023-03-18T05:34:42;158187.03;;;9.01;94.05
29331;BME280;16331;52.528;13.342;2023-03-18T05:37:10;158176.06;;;8.97;93.69
29331;BME280;16331;52.528;13.342;2023-03-18T05:39:37;158207.56;;;9.08;94.00
29331;BME280;16331;52.528;13.342;2023-03-18T05:42:05;158222.66;;;9.14;92.80
29331;BME280;16331;52.528;13.342;2023-03-18T05:44:34;158239.09;;;9.20;93.22
29331;BME280;16331;52.528;13.342;2023-03-18T05:47:04;158219.91;;;9.13;92.15
29331;BME280;16331;52.528;13.342;2023-03-18T05:49:30;158228.13;;;9.16;92.35
29331;BME280;16331;52.528;13.342;2023-03-18T05:51:57;158236.38;;;9.19;91.79
29331;BME280;16331;52.528;13.342;2023-03-18T05:54:25;158195.25;;;9.04;94.38
29331;BME280;16331;52.528;13.342;2023-03-18T05:56:52;158203.47;;;9.07;94.40
29331;BME280;16331;52.528;13.342;2023-03-18T05:59:19;158280.19;;;9.35;91.56
29331;BME280;16331;52.528;13.342;2023-03-18T06:01:48;158189.75;;;9.02;94.79
29331;BME280;16331;52.528;13.342;2023-03-18T06:04:14;158239.09;;;9.20;93.45
29331;BME280;16331;52.528;13.342;2023-03-18T06:06:42;158255.53;;;9.26;92.91
29331;BME280;16331;52.528;13.342;2023-03-18T06:09:11;158254.13;;;9.25;93.63
29331;BME280;16331;52.528;13.342;2023-03-18T06:11:40;158270.63;;;9.31;92.91
29331;BME280;16331;52.528;13.342;2023-03-18T06:14:07;158285.66;;;9.37;92.63
29331;BME280;16331;52.528;13.342;2023-03-18T06:16:35;158282.94;;;9.36;92.77
29331;BME280;16331;52.528;13.342;2023-03-18T06:19:04;158254.13;;;9.25;93.20
29331;BME280;16331;52.528;13.342;2023-03-18T06:21:30;158222.66;;;9.14;94.24
29331;BME280;16331;52.528;13.342;2023-03-18T06:23:58;158235.00;;;9.18;94.51
29331;BME280;16331;52.528;13.342;2023-03-18T06:26:25;158237.72;;;9.19;94.31
29331;BME280;16331;52.528;13.342;2023-03-18T06:28:51;158184.28;;;9.00;95.93
29331;BME280;16331;52.528;13.342;2023-03-18T06:31:18;158188.38;;;9.01;96.66
29331;BME280;16331;52.528;13.342;2023-03-18T06:33:45;158161.03;;;8.91;98.23
29331;BME280;16331;52.528;13.342;2023-03-18T06:36:12;158182.94;;;8.99;97.04
29331;BME280;16331;52.528;13.342;2023-03-18T06:38:46;158215.78;;;9.11;96.21
29331;BME280;16331;52.528;13.342;2023-03-18T06:41:14;158243.22;;;9.21;96.32
29331;BME280;16331;52.528;13.342;2023-03-18T06:43:41;158265.13;;;9.29;95.70
29331;BME280;16331;52.528;13.342;2023-03-18T06:46:20;158306.25;;;9.44;93.64
29331;BME280;16331;52.528;13.342;2023-03-18T06:48:48;158247.31;;;9.23;95.97
29331;BME280;16331;52.528;13.342;2023-03-18T06:51:16;158291.16;;;9.39;94.16
29331;BME280;16331;52.528;13.342;2023-03-18T06:53:42;158321.31;;;9.50;93.77
29331;BME280;16331;52.528;13.342;2023-03-18T06:56:09;158319.94;;;9.49;94.61
29331;BME280;16331;52.528;13.342;2023-03-18T06:58:39;158374.78;;;9.69;92.36
29331;BME280;16331;52.528;13.342;2023-03-18T07:01:08;158381.59;;;9.72;91.15
29331;BME280;16331;52.528;13.342;2023-03-18T07:03:39;158422.75;;;9.87;90.36
29331;BME280;16331;52.528;13.342;2023-03-18T07:06:06;158392.59;;;9.76;90.95
29331;BME280;16331;52.528;13.342;2023-03-18T07:08:34;158439.19;;;9.93;89.32
29331;BME280;16331;52.528;13.342;2023-03-18T07:11:05;158428.25;;;9.89;90.79
29331;BME280;16331;52.528;13.342;2023-03-18T07:13:34;158403.53;;;9.80;91.13
29331;BME280;16331;52.528;13.342;2023-03-18T07:16:01;158378.88;;;9.71;92.05
29331;BME280;16331;52.528;13.342;2023-03-18T07:18:27;158457.03;;;9.99;89.99
29331;BME280;16331;52.528;13.342;2023-03-18T07:20:54;158452.91;;;9.98;90.69
29331;BME280;16331;52.528;13.342;2023-03-18T07:23:21;158469.34;;;10.04;90.96
29331;BME280;16331;52.528;13.342;2023-03-18T07:25:47;158505.06;;;10.17;89.65
29331;BME280;16331;52.528;13.342;2023-03-18T07:28:13;158500.97;;;10.15;90.36
29331;BME280;16331;52.528;13.342;2023-03-18T07:30:41;158520.19;;;10.23;89.12
29331;BME280;16331;52.528;13.342;2023-03-18T07:33:09;158403.53;;;9.80;93.00
29331;BME280;16331;52.528;13.342;2023-03-18T07:35:36;158381.59;;;9.72;95.36
29331;BME280;16331;52.528;13.342;2023-03-18T07:38:19;158459.75;;;10.00;93.12
29331;BME280;16331;52.528;13.342;2023-03-18T07:40:45;158461.13;;;10.01;93.42
29331;BME280;16331;52.528;13.342;2023-03-18T07:43:17;158559.97;;;10.37;92.17
29331;BME280;16331;52.528;13.342;2023-03-18T07:45:44;158592.84;;;10.49;90.55
29331;BME280;16331;52.528;13.342;2023-03-18T07:48:13;158609.31;;;10.55;90.79
29331;BME280;16331;52.528;13.342;2023-03-18T07:50:43;158621.66;;;10.60;90.32
29331;BME280;16331;52.528;13.342;2023-03-18T07:53:11;158666.94;;;10.76;89.42
29331;BME280;16331;52.528;13.342;2023-03-18T07:55:39;158779.47;;;11.17;86.18
29331;BME280;16331;52.528;13.342;2023-03-18T07:58:06;158738.31;;;11.02;87.39
29331;BME280;16331;52.528;13.342;2023-03-18T08:00:36;158746.53;;;11.05;89.12
29331;BME280;16331;52.528;13.342;2023-03-18T08:03:03;158827.50;;;11.35;85.79
29331;BME280;16331;52.528;13.342;2023-03-18T08:05:31;158870.09;;;11.50;85.40
29331;BME280;16331;52.528;13.342;2023-03-18T08:07:59;158890.69;;;11.58;85.68
29331;BME280;16331;52.528;13.342;2023-03-18T08:10:27;158958.06;;;11.83;81.59
29331;BME280;16331;52.528;13.342;2023-03-18T08:12:56;159037.69;;;12.12;79.38
29331;BME280;16331;52.528;13.342;2023-03-18T08:15:27;158986.88;;;11.93;80.47
29331;BME280;16331;52.528;13.342;2023-03-18T08:17:54;158999.22;;;11.98;81.30
29331;BME280;16331;52.528;13.342;2023-03-18T08:20:21;159056.94;;;12.19;80.47
29331;BME280;16331;52.528;13.342;2023-03-18T08:22:48;159034.94;;;12.11;83.14
29331;BME280;16331;52.528;13.342;2023-03-18T08:25:16;159125.63;;;12.44;80.24
29331;BME280;16331;52.528;13.342;2023-03-18T08:27:42;159157.25;;;12.55;77.52
29331;BME280;16331;52.528;13.342;2023-03-18T08:30:10;159216.38;;;12.77;76.35
29331;BME280;16331;52.528;13.342;2023-03-18T08:32:39;159309.88;;;13.11;73.63
29331;BME280;16331;52.528;13.342;2023-03-18T08:35:06;159403.41;;;13.45;70.65
29331;BME280;16331;52.528;13.342;2023-03-18T08:37:38;159308.53;;;13.11;75.26
29331;BME280;16331;52.528;13.342;2023-03-18T08:40:06;159402.00;;;13.45;72.05
29331;BME280;16331;52.528;13.342;2023-03-18T08:42:34;159386.91;;;13.39;73.02
29331;BME280;16331;52.528;13.342;2023-03-18T08:45:02;159334.66;;;13.20;75.48
29331;BME280;16331;52.528;13.342;2023-03-18T08:47:31;159411.66;;;13.48;73.30
29331;BME280;16331;52.528;13.342;2023-03-18T08:49:59;159298.91;;;13.07;75.26
29331;BME280;16331;52.528;13.342;2023-03-18T08:52:29;159258.97;;;12.92;79.11
29331;BME280;16331;52.528;13.342;2023-03-18T08:55:01;159373.16;;;13.34;76.34
29331;BME280;16331;52.528;13.342;2023-03-18T08:57:30;159443.31;;;13.60;73.72
29331;BME280;16331;52.528;13.342;2023-03-18T08:59:57;159465.31;;;13.68;72.83
29331;BME280;16331;52.528;13.342;2023-03-18T09:02:27;159554.78;;;14.00;70.15
29331;BME280;16331;52.528;13.342;2023-03-18T09:04:57;159565.75;;;14.04;71.00
29331;BME280;16331;52.528;13.342;2023-03-18T09:07:31;159648.38;;;14.34;68.63
29331;BME280;16331;52.528;13.342;2023-03-18T09:10:00;159629.13;;;14.27;69.33
29331;BME280;16331;52.528;13.342;2023-03-18T09:12:27;159582.25;;;14.10;69.29
29331;BME280;16331;52.528;13.342;2023-03-18T09:14:56;159466.69;;;13.68;75.51
29331;BME280;16331;52.528;13.342;2023-03-18T09:17:25;159547.84;;;13.98;73.09
29331;BME280;16331;52.528;13.342;2023-03-18T09:19:51;159634.59;;;14.29;70.43
29331;BME280;16331;52.528;13.342;2023-03-18T09:22:18;159664.94;;;14.40;70.78
29331;BME280;16331;52.528;13.342;2023-03-18T09:24:45;159739.28;;;14.68;69.08
29331;BME280;16331;52.528;13.342;2023-03-18T09:27:12;159792.94;;;14.87;66.79
29331;BME280;16331;52.528;13.342;2023-03-18T09:29:40;159775.03;;;14.81;68.20
29331;BME280;16331;52.528;13.342;2023-03-18T09:32:10;159799.84;;;14.90;66.40
29331;BME280;16331;52.528;13.342;2023-03-18T09:34:41;159739.28;;;14.68;68.90
29331;BME280;16331;52.528;13.342;2023-03-18T09:37:16;159867.31;;;15.14;66.40
29331;BME280;16331;52.528;13.342;2023-03-18T09:39:44;159846.66;;;15.07;66.10
29331;BME280;16331;52.528;13.342;2023-03-18T09:45:34;159904.53;;;15.28;65.99
29331;BME280;16331;52.528;13.342;2023-03-18T09:48:39;159923.84;;;15.35;64.42
29331;BME280;16331;52.528;13.342;2023-03-18T09:51:43;159998.28;;;15.62;63.50
29331;BME280;16331;52.528;13.342;2023-03-18T09:54:22;159937.63;;;15.40;65.43
29331;BME280;16331;52.528;13.342;2023-03-18T09:56:59;159967.97;;;15.51;64.02
29331;BME280;16331;52.528;13.342;2023-03-18T09:59:38;160067.19;;;15.87;63.22
29331;BME280;16331;52.528;13.342;2023-03-18T10:02:22;160003.78;;;15.64;65.58
29331;BME280;16331;52.528;13.342;2023-03-18T10:05:01;160028.59;;;15.73;64.61
29331;BME280;16331;52.528;13.342;2023-03-18T10:07:33;160183.00;;;16.29;62.21
29331;BME280;16331;52.528;13.342;2023-03-18T10:13:44;160315.47;;;16.77;59.34
29331;BME280;16331;52.528;13.342;2023-03-18T10:16:19;160425.78;;;17.17;58.61
29331;BME280;16331;52.528;13.342;2023-03-18T10:18:49;160530.78;;;17.56;56.45
29331;BME280;16331;52.528;13.342;2023-03-18T10:21:49;160581.84;;;17.74;55.08
29331;BME280;16331;52.528;13.342;2023-03-18T10:24:35;160458.94;;;17.29;55.58
29331;BME280;16331;52.528;13.342;2023-03-18T10:27:29;160351.28;;;16.90;57.79
29331;BME280;16331;52.528;13.342;2023-03-18T10:30:37;160348.56;;;16.89;58.75
29331;BME280;16331;52.528;13.342;2023-03-18T10:33:22;160211.94;;;16.40;62.82
29331;BME280;16331;52.528;13.342;2023-03-18T10:36:35;160403.72;;;17.09;60.17
29331;BME280;16331;52.528;13.342;2023-03-18T10:39:12;160347.16;;;16.89;60.91
29331;BME280;16331;52.528;13.342;2023-03-18T10:41:41;160487.91;;;17.40;58.70
29331;BME280;16331;52.528;13.342;2023-03-18T10:44:35;160483.75;;;17.38;58.74
29331;BME280;16331;52.528;13.342;2023-03-18T10:47:26;160516.97;;;17.51;58.13
29331;BME280;16331;52.528;13.342;2023-03-18T10:50:17;160580.44;;;17.74;57.75
29331;BME280;16331;52.528;13.342;2023-03-18T10:52:51;160521.09;;;17.52;58.21
29331;BME280;16331;52.528;13.342;2023-03-18T10:55:35;160605.31;;;17.83;57.54
29331;BME280;16331;52.528;13.342;2023-03-18T10:58:20;160492.03;;;17.42;61.83
29331;BME280;16331;52.528;13.342;2023-03-18T11:00:48;160592.91;;;17.78;59.40
29331;BME280;16331;52.528;13.342;2023-03-18T11:03:50;160597.03;;;17.80;60.21
29331;BME280;16331;52.528;13.342;2023-03-18T11:06:23;160588.72;;;17.77;61.00
29331;BME280;16331;52.528;13.342;2023-03-18T11:09:04;160773.81;;;18.44;59.80
29331;BME280;16331;52.528;13.342;2023-03-18T11:11:34;160807.00;;;18.56;58.11
29331;BME280;16331;52.528;13.342;2023-03-18T11:14:06;160668.81;;;18.06;58.61
29331;BME280;16331;52.528;13.342;2023-03-18T11:17:02;160758.66;;;18.38;57.54
29331;BME280;16331;52.528;13.342;2023-03-18T11:19:47;160707.50;;;18.20;58.62
29331;BME280;16331;52.528;13.342;2023-03-18T11:22:26;160639.81;;;17.95;58.72
29331;BME280;16331;52.528;13.342;2023-03-18T11:25:18;160755.84;;;18.37;57.83
29331;BME280;16331;52.528;13.342;2023-03-18T11:28:02;160793.19;;;18.51;58.84
29331;BME280;16331;52.528;13.342;2023-03-18T11:30:34;160878.84;;;18.82;59.33
29331;BME280;16331;52.528;13.342;2023-03-18T11:33:20;160605.31;;;17.83;62.51
29331;BME280;16331;52.528;13.342;2023-03-18T11:36:05;160609.47;;;17.84;64.78
29331;BME280;16331;52.528;13.342;2023-03-18T11:38:34;160602.53;;;17.82;66.19
29331;BME280;16331;52.528;13.342;2023-03-18T11:41:23;160631.56;;;17.92;70.14
29331;BME280;16331;52.528;13.342;2023-03-18T11:43:59;160733.75;;;18.29;66.03
29331;BME280;16331;52.528;13.342;2023-03-18T11:46:36;160696.44;;;18.16;67.84
29331;BME280;16331;52.528;13.342;2023-03-18T11:49:08;160721.28;;;18.25;69.45
29331;BME280;16331;52.528;13.342;2023-03-18T11:57:42;161133.25;;;19.74;60.09
29331;BME280;16331;52.528;13.342;2023-03-18T12:00:35;161171.97;;;19.88;58.23
29331;BME280;16331;52.528;13.342;2023-03-18T12:03:42;161120.81;;;19.70;59.95
29331;BME280;16331;52.528;13.342;2023-03-18T12:06:22;161018.50;;;19.33;60.94
29331;BME280;16331;52.528;13.342;2023-03-18T12:09:27;161003.22;;;19.27;62.52
29331;BME280;16331;52.528;13.342;2023-03-18T12:12:02;161008.81;;;19.29;62.49
29331;BME280;16331;52.528;13.342;2023-03-18T12:14:53;161194.09;;;19.96;60.17
29331;BME280;16331;52.528;13.342;2023-03-18T12:17:47;161387.84;;;20.67;58.37
29331;BME280;16331;52.528;13.342;2023-03-18T12:20:50;161565.09;;;21.31;56.52
29331;BME280;16331;52.528;13.342;2023-03-18T12:23:34;161745.16;;;21.96;53.14
29331;BME280;16331;52.528;13.342;2023-03-18T12:48:03;162001.59;;;22.89;51.24
29331;BME280;16331;52.528;13.342;2023-03-18T12:50:37;162018.28;;;22.95;51.86
29331;BME280;16331;52.528;13.342;2023-03-18T12:53:17;161778.44;;;22.08;52.03
29331;BME280;16331;52.528;13.342;2023-03-18T12:55:52;161513.88;;;21.12;55.44
29331;BME280;16331;52.528;13.342;2023-03-18T12:58:30;161590.03;;;21.40;56.07
29331;BME280;16331;52.528;13.342;2023-03-18T13:01:16;161612.19;;;21.48;56.12
29331;BME280;16331;52.528;13.342;2023-03-18T13:04:06;161731.38;;;21.91;55.19
29331;BME280;16331;52.528;13.342;2023-03-18T13:09:24;161624.66;;;21.52;59.25
29331;BME280;16331;52.528;13.342;2023-03-18T13:15:05;161779.84;;;22.09;56.45
29331;BME280;16331;52.528;13.342;2023-03-18T13:17:44;161757.69;;;22.01;55.97
29331;BME280;16331;52.528;13.342;2023-03-18T13:20:26;161670.31;;;21.69;57.37
29331;BME280;16331;52.528;13.342;2023-03-18T13:23:33;161799.22;;;22.16;56.78
29331;BME280;16331;52.528;13.342;2023-03-18T13:26:07;162211.09;;;23.65;50.64
29331;BME280;16331;52.528;13.342;2023-03-18T13:31:53;161718.84;;;21.87;56.01
29331;BME280;16331;52.528;13.342;2023-03-18T13:43:00;162754.09;;;25.61;45.92
29331;BME280;16331;52.528;13.342;2023-03-18T13:45:38;163224.16;;;27.31;41.06
29331;BME280;16331;52.528;13.342;2023-03-18T13:48:14;163213.00;;;27.27;41.68
29331;BME280;16331;52.528;13.342;2023-03-18T13:50:50;163172.59;;;27.12;41.50
29331;BME280;16331;52.528;13.342;2023-03-18T13:53:25;163239.44;;;27.36;40.33
29331;BME280;16331;52.528;13.342;2023-03-18T13:56:03;163075.25;;;26.77;41.39
29331;BME280;16331;52.528;13.342;2023-03-18T13:58:45;162980.63;;;26.43;41.94
29331;BME280;16331;52.528;13.342;2023-03-18T14:01:27;163055.75;;;26.70;41.62
29331;BME280;16331;52.528;13.342;2023-03-18T14:04:27;163108.66;;;26.89;40.83
29331;BME280;16331;52.528;13.342;2023-03-18T14:07:18;162799.91;;;25.78;43.09
29331;BME280;16331;52.528;13.342;2023-03-18T14:09:50;162691.56;;;25.38;44.09
29331;BME280;16331;52.528;13.342;2023-03-18T14:12:39;162994.53;;;26.48;41.90